sensor_id;sensor_type;location;lat;lon;timestamp;pressure;altitude;pressure_sealevel;temperature;humidity
46846;BME280;33947;46.804;134.252;2023-02-04T00:00:20;101347.09;;;-23.52;55.48
46846;BME280;33947;46.804;134.252;2023-02-04T00:03:26;101341.63;;;-22.77;56.51
46846;BME280;33947;46.804;134.252;2023-02-04T00:06:32;101341.41;;;-22.06;56.13
46846;BME280;33947;46.804;134.252;2023-02-04T00:09:38;101351.50;;;-21.23;53.52
46846;BME280;33947;46.804;134.252;2023-02-04T00:12:44;101341.56;;;-22.05;52.15
46846;BME280;33947;46.804;134.252;2023-02-04T00:15:49;101260.53;;;-22.60;53.51
46846;BME280;33947;46.804;134.252;2023-02-04T00:18:56;101340.78;;;-21.82;53.20
46846;BME280;33947;46.804;134.252;2023-02-04T00:22:03;101321.03;;;-21.93;53.20
46846;BME280;33947;46.804;134.252;2023-02-04T00:28:42;101324.59;;;-20.85;54.60
46846;BME280;33947;46.804;134.252;2023-02-04T00:31:46;101316.38;;;-19.97;54.57
46846;BME280;33947;46.804;134.252;2023-02-04T00:34:52;101333.31;;;-19.07;53.55
46846;BME280;33947;46.804;134.252;2023-02-04T00:38:00;101313.47;;;-18.77;53.99
46846;BME280;33947;46.804;134.252;2023-02-04T00:41:06;101312.78;;;-18.34;53.80
46846;BME280;33947;46.804;134.252;2023-02-04T00:44:12;101314.53;;;-17.72;51.15
46846;BME280;33947;46.804;134.252;2023-02-04T00:47:18;101305.44;;;-17.35;51.40
46846;BME280;33947;46.804;134.252;2023-02-04T00:50:25;101318.44;;;-16.60;51.90
46846;BME280;33947;46.804;134.252;2023-02-04T00:53:31;101324.78;;;-15.43;51.43
46846;BME280;33947;46.804;134.252;2023-02-04T00:56:37;101313.78;;;-15.91;49.17
46846;BME280;33947;46.804;134.252;2023-02-04T00:59:43;101288.94;;;-14.77;48.75
46846;BME280;33947;46.804;134.252;2023-02-04T01:02:49;101311.47;;;-14.31;46.06
46846;BME280;33947;46.804;134.252;2023-02-04T01:05:55;101311.66;;;-13.68;45.51
46846;BME280;33947;46.804;134.252;2023-02-04T01:09:00;101276.81;;;-13.34;46.11
46846;BME280;33947;46.804;134.252;2023-02-04T01:12:08;101314.84;;;-11.73;42.71
46846;BME280;33947;46.804;134.252;2023-02-04T01:15:15;101307.84;;;-12.32;41.36
46846;BME280;33947;46.804;134.252;2023-02-04T01:18:22;101292.25;;;-12.57;42.83
46846;BME280;33947;46.804;134.252;2023-02-04T01:21:28;101295.06;;;-12.32;42.05
46846;BME280;33947;46.804;134.252;2023-02-04T01:24:34;101279.34;;;-12.59;42.70
46846;BME280;33947;46.804;134.252;2023-02-04T01:27:59;101299.84;;;-12.37;43.34
46846;BME280;33947;46.804;134.252;2023-02-04T01:31:05;101300.91;;;-10.95;43.05
46846;BME280;33947;46.804;134.252;2023-02-04T01:34:11;101295.06;;;-10.56;40.19
46846;BME280;33947;46.804;134.252;2023-02-04T01:37:16;101307.41;;;-10.51;40.52
46846;BME280;33947;46.804;134.252;2023-02-04T01:40:23;101304.34;;;-10.70;41.83
46846;BME280;33947;46.804;134.252;2023-02-04T01:43:27;101302.13;;;-9.64;38.88
46846;BME280;33947;46.804;134.252;2023-02-04T01:46:35;101258.34;;;-9.39;38.56
46846;BME280;33947;46.804;134.252;2023-02-04T01:49:41;101292.69;;;-8.71;38.81
46846;BME280;33947;46.804;134.252;2023-02-04T01:52:46;101295.84;;;-9.42;37.21
46846;BME280;33947;46.804;134.252;2023-02-04T01:55:53;101273.16;;;-10.63;40.49
46846;BME280;33947;46.804;134.252;2023-02-04T01:59:00;101288.19;;;-8.60;38.86
46846;BME280;33947;46.804;134.252;2023-02-04T02:06:00;101270.25;;;-10.05;37.70
46846;BME280;33947;46.804;134.252;2023-02-04T02:09:05;101288.69;;;-11.69;39.49
46846;BME280;33947;46.804;134.252;2023-02-04T02:12:12;101284.78;;;-10.31;41.01
46846;BME280;33947;46.804;134.252;2023-02-04T02:15:17;101279.44;;;-10.09;40.43
46846;BME280;33947;46.804;134.252;2023-02-04T02:18:24;101284.94;;;-10.16;40.33
46846;BME280;33947;46.804;134.252;2023-02-04T02:21:37;101273.09;;;-10.14;40.12
46846;BME280;33947;46.804;134.252;2023-02-04T02:24:44;101282.06;;;-10.46;41.46
46846;BME280;33947;46.804;134.252;2023-02-04T02:27:50;101271.38;;;-10.64;39.95
46846;BME280;33947;46.804;134.252;2023-02-04T02:30:55;101267.53;;;-10.45;40.52
46846;BME280;33947;46.804;134.252;2023-02-04T02:34:01;101252.38;;;-10.04;41.20
46846;BME280;33947;46.804;134.252;2023-02-04T02:37:07;101251.72;;;-8.95;39.34
46846;BME280;33947;46.804;134.252;2023-02-04T02:40:13;101231.19;;;-8.93;37.64
46846;BME280;33947;46.804;134.252;2023-02-04T02:43:23;101232.03;;;-9.21;36.53
46846;BME280;33947;46.804;134.252;2023-02-04T02:46:29;101233.19;;;-9.30;36.68
46846;BME280;33947;46.804;134.252;2023-02-04T02:49:36;101149.22;;;-9.69;37.12
46846;BME280;33947;46.804;134.252;2023-02-04T02:52:44;101201.44;;;-9.57;37.22
46846;BME280;33947;46.804;134.252;2023-02-04T02:55:51;101175.06;;;-10.45;37.16
46846;BME280;33947;46.804;134.252;2023-02-04T02:59:12;101203.69;;;-10.53;37.94
46846;BME280;33947;46.804;134.252;2023-02-04T03:02:21;101221.41;;;-9.80;37.84
46846;BME280;33947;46.804;134.252;2023-02-04T03:05:30;101208.25;;;-9.71;37.60
46846;BME280;33947;46.804;134.252;2023-02-04T03:08:39;101184.16;;;-10.51;37.90
46846;BME280;33947;46.804;134.252;2023-02-04T03:11:45;101189.25;;;-11.13;40.74
46846;BME280;33947;46.804;134.252;2023-02-04T03:14:52;101206.28;;;-10.65;40.53
46846;BME280;33947;46.804;134.252;2023-02-04T03:17:57;101216.66;;;-10.51;40.12
46846;BME280;33947;46.804;134.252;2023-02-04T03:21:04;101207.41;;;-9.97;40.13
46846;BME280;33947;46.804;134.252;2023-02-04T03:24:13;101159.06;;;-9.89;39.48
46846;BME280;33947;46.804;134.252;2023-02-04T03:27:20;101203.59;;;-9.63;38.37
46846;BME280;33947;46.804;134.252;2023-02-04T03:30:26;101171.03;;;-10.03;39.68
46846;BME280;33947;46.804;134.252;2023-02-04T03:33:33;101163.53;;;-9.73;38.82
46846;BME280;33947;46.804;134.252;2023-02-04T03:36:38;101165.97;;;-10.15;38.70
46846;BME280;33947;46.804;134.252;2023-02-04T03:39:47;101186.91;;;-9.56;38.97
46846;BME280;33947;46.804;134.252;2023-02-04T03:42:53;101121.50;;;-9.87;39.20
46846;BME280;33947;46.804;134.252;2023-02-04T03:45:59;101121.63;;;-9.85;38.69
46846;BME280;33947;46.804;134.252;2023-02-04T03:49:05;101177.88;;;-9.50;38.55
46846;BME280;33947;46.804;134.252;2023-02-04T03:52:11;101174.81;;;-9.84;38.64
46846;BME280;33947;46.804;134.252;2023-02-04T03:55:17;101188.25;;;-10.41;39.65
46846;BME280;33947;46.804;134.252;2023-02-04T03:58:23;101179.91;;;-10.50;40.67
46846;BME280;33947;46.804;134.252;2023-02-04T04:01:27;101176.31;;;-10.13;39.86
46846;BME280;33947;46.804;134.252;2023-02-04T04:04:35;101176.00;;;-9.79;40.76
46846;BME280;33947;46.804;134.252;2023-02-04T04:07:41;101172.72;;;-9.90;39.71
46846;BME280;33947;46.804;134.252;2023-02-04T04:10:47;101127.13;;;-10.06;40.74
46846;BME280;33947;46.804;134.252;2023-02-04T04:13:52;101165.22;;;-9.60;40.51
46846;BME280;33947;46.804;134.252;2023-02-04T04:16:59;101174.41;;;-10.29;40.93
46846;BME280;33947;46.804;134.252;2023-02-04T04:20:05;101159.72;;;-10.05;41.53
46846;BME280;33947;46.804;134.252;2023-02-04T04:26:49;101108.56;;;-10.02;41.17
46846;BME280;33947;46.804;134.252;2023-02-04T04:37:16;101146.63;;;-9.69;40.08
46846;BME280;33947;46.804;134.252;2023-02-04T04:43:53;101143.06;;;-9.31;38.74
46846;BME280;33947;46.804;134.252;2023-02-04T04:46:59;101145.94;;;-9.67;40.56
46846;BME280;33947;46.804;134.252;2023-02-04T04:50:05;101152.19;;;-9.63;41.54
46846;BME280;33947;46.804;134.252;2023-02-04T04:53:12;101145.72;;;-9.30;40.52
46846;BME280;33947;46.804;134.252;2023-02-04T04:56:15;101153.38;;;-9.03;39.33
46846;BME280;33947;46.804;134.252;2023-02-04T04:59:25;101143.34;;;-9.26;39.58
46846;BME280;33947;46.804;134.252;2023-02-04T05:02:32;101130.94;;;-9.19;38.82
46846;BME280;33947;46.804;134.252;2023-02-04T05:05:37;101143.97;;;-9.84;40.03
46846;BME280;33947;46.804;134.252;2023-02-04T05:08:44;101140.34;;;-10.13;41.76
46846;BME280;33947;46.804;134.252;2023-02-04T05:11:52;101134.16;;;-9.50;41.02
46846;BME280;33947;46.804;134.252;2023-02-04T05:14:58;101135.13;;;-9.48;39.79
46846;BME280;33947;46.804;134.252;2023-02-04T05:18:05;101139.38;;;-9.35;40.89
46846;BME280;33947;46.804;134.252;2023-02-04T05:21:10;101140.13;;;-9.09;38.64
46846;BME280;33947;46.804;134.252;2023-02-04T05:24:16;101141.97;;;-8.93;39.64
46846;BME280;33947;46.804;134.252;2023-02-04T05:27:23;101135.28;;;-9.04;39.50
46846;BME280;33947;46.804;134.252;2023-02-04T05:30:33;101147.63;;;-8.85;39.70
46846;BME280;33947;46.804;134.252;2023-02-04T05:33:37;101142.84;;;-8.79;39.12
46846;BME280;33947;46.804;134.252;2023-02-04T05:36:44;101122.41;;;-9.04;38.97
46846;BME280;33947;46.804;134.252;2023-02-04T05:39:50;101146.34;;;-8.63;39.38
46846;BME280;33947;46.804;134.252;2023-02-04T05:42:56;101129.63;;;-8.70;38.31
46846;BME280;33947;46.804;134.252;2023-02-04T05:46:02;101150.06;;;-8.58;38.87
46846;BME280;33947;46.804;134.252;2023-02-04T05:49:08;101150.47;;;-8.52;38.64
46846;BME280;33947;46.804;134.252;2023-02-04T05:52:14;101132.25;;;-8.83;38.25
46846;BME280;33947;46.804;134.252;2023-02-04T05:55:20;101106.97;;;-9.04;37.81
46846;BME280;33947;46.804;134.252;2023-02-04T05:58:26;101139.78;;;-9.28;38.15
46846;BME280;33947;46.804;134.252;2023-02-04T06:01:36;101138.19;;;-9.13;39.33
46846;BME280;33947;46.804;134.252;2023-02-04T06:04:44;101110.09;;;-9.23;38.79
46846;BME280;33947;46.804;134.252;2023-02-04T06:07:50;101155.03;;;-9.18;38.94
46846;BME280;33947;46.804;134.252;2023-02-04T06:10:55;101167.81;;;-8.91;38.62
46846;BME280;33947;46.804;134.252;2023-02-04T06:14:01;101140.56;;;-8.88;38.52
46846;BME280;33947;46.804;134.252;2023-02-04T06:17:05;101168.53;;;-8.94;37.69
46846;BME280;33947;46.804;134.252;2023-02-04T06:20:13;101154.56;;;-8.97;38.61
46846;BME280;33947;46.804;134.252;2023-02-04T06:23:19;101151.00;;;-8.86;37.96
46846;BME280;33947;46.804;134.252;2023-02-04T06:26:25;101131.88;;;-8.90;38.35
46846;BME280;33947;46.804;134.252;2023-02-04T06:29:29;101100.41;;;-9.41;38.43
46846;BME280;33947;46.804;134.252;2023-02-04T06:32:37;101158.09;;;-9.24;38.44
46846;BME280;33947;46.804;134.252;2023-02-04T06:35:43;101166.06;;;-9.06;38.66
46846;BME280;33947;46.804;134.252;2023-02-04T06:38:49;101184.59;;;-9.11;38.40
46846;BME280;33947;46.804;134.252;2023-02-04T06:41:54;101170.38;;;-9.33;37.89
46846;BME280;33947;46.804;134.252;2023-02-04T06:48:36;101170.09;;;-9.51;39.35
46846;BME280;33947;46.804;134.252;2023-02-04T06:51:44;101153.75;;;-9.79;39.09
46846;BME280;33947;46.804;134.252;2023-02-04T06:54:50;101148.63;;;-9.79;38.60
46846;BME280;33947;46.804;134.252;2023-02-04T06:57:58;101151.75;;;-9.96;39.79
46846;BME280;33947;46.804;134.252;2023-02-04T07:01:04;101178.34;;;-9.96;39.43
46846;BME280;33947;46.804;134.252;2023-02-04T07:04:09;101183.22;;;-9.60;40.37
46846;BME280;33947;46.804;134.252;2023-02-04T07:07:13;101178.97;;;-9.73;39.18
46846;BME280;33947;46.804;134.252;2023-02-04T07:10:17;101190.56;;;-9.66;39.03
46846;BME280;33947;46.804;134.252;2023-02-04T07:13:23;101173.69;;;-9.88;38.68
46846;BME280;33947;46.804;134.252;2023-02-04T07:16:28;101185.22;;;-10.08;38.74
46846;BME280;33947;46.804;134.252;2023-02-04T07:19:32;101182.31;;;-10.01;38.90
46846;BME280;33947;46.804;134.252;2023-02-04T07:22:38;101196.03;;;-10.39;39.60
46846;BME280;33947;46.804;134.252;2023-02-04T07:25:42;101190.47;;;-10.45;39.77
46846;BME280;33947;46.804;134.252;2023-02-04T07:28:47;101188.41;;;-10.51;39.67
46846;BME280;33947;46.804;134.252;2023-02-04T07:31:52;101188.59;;;-10.73;39.61
46846;BME280;33947;46.804;134.252;2023-02-04T07:35:00;101197.75;;;-10.77;39.85
46846;BME280;33947;46.804;134.252;2023-02-04T07:38:05;101201.13;;;-10.90;40.36
46846;BME280;33947;46.804;134.252;2023-02-04T07:41:10;101203.59;;;-10.92;40.38
46846;BME280;33947;46.804;134.252;2023-02-04T07:44:15;101204.69;;;-10.88;40.40
46846;BME280;33947;46.804;134.252;2023-02-04T07:47:19;101201.81;;;-10.93;40.20
46846;BME280;33947;46.804;134.252;2023-02-04T07:50:24;101172.50;;;-11.20;39.83
46846;BME280;33947;46.804;134.252;2023-02-04T07:53:28;101182.69;;;-11.45;40.28
46846;BME280;33947;46.804;134.252;2023-02-04T07:56:33;101187.94;;;-11.44;40.28
46846;BME280;33947;46.804;134.252;2023-02-04T07:59:38;101210.91;;;-11.34;39.99
46846;BME280;33947;46.804;134.252;2023-02-04T08:02:42;101176.34;;;-11.74;40.50
46846;BME280;33947;46.804;134.252;2023-02-04T08:05:47;101195.84;;;-11.88;40.90
46846;BME280;33947;46.804;134.252;2023-02-04T08:08:52;101160.34;;;-12.42;41.39
46846;BME280;33947;46.804;134.252;2023-02-04T08:11:56;101211.50;;;-12.19;41.64
46846;BME280;33947;46.804;134.252;2023-02-04T08:15:03;101198.94;;;-12.16;41.78
46846;BME280;33947;46.804;134.252;2023-02-04T08:18:10;101199.38;;;-11.98;40.46
46846;BME280;33947;46.804;134.252;2023-02-04T08:21:14;101148.94;;;-12.57;41.54
46846;BME280;33947;46.804;134.252;2023-02-04T08:24:21;101185.22;;;-12.29;40.74
46846;BME280;33947;46.804;134.252;2023-02-04T08:27:26;101188.41;;;-12.66;41.67
46846;BME280;33947;46.804;134.252;2023-02-04T08:30:30;101202.09;;;-12.43;41.11
46846;BME280;33947;46.804;134.252;2023-02-04T08:33:35;101196.25;;;-12.74;40.99
46846;BME280;33947;46.804;134.252;2023-02-04T08:36:39;101202.69;;;-13.57;43.19
46846;BME280;33947;46.804;134.252;2023-02-04T08:39:43;101225.34;;;-14.13;44.92
46846;BME280;33947;46.804;134.252;2023-02-04T08:42:48;101250.44;;;-14.49;46.41
46846;BME280;33947;46.804;134.252;2023-02-04T08:45:52;101164.41;;;-15.12;45.98
46846;BME280;33947;46.804;134.252;2023-02-04T08:48:56;101200.13;;;-14.91;46.04
46846;BME280;33947;46.804;134.252;2023-02-04T08:52:01;101252.19;;;-14.69;46.05
46846;BME280;33947;46.804;134.252;2023-02-04T08:55:09;101248.47;;;-14.93;46.70
46846;BME280;33947;46.804;134.252;2023-02-04T08:58:15;101254.16;;;-15.06;47.10
46846;BME280;33947;46.804;134.252;2023-02-04T09:01:19;101238.66;;;-15.47;47.58
46846;BME280;33947;46.804;134.252;2023-02-04T09:04:24;101237.06;;;-15.56;47.19
46846;BME280;33947;46.804;134.252;2023-02-04T09:07:30;101240.50;;;-15.55;47.47
46846;BME280;33947;46.804;134.252;2023-02-04T09:10:34;101255.47;;;-15.49;47.64
46846;BME280;33947;46.804;134.252;2023-02-04T09:13:39;101270.66;;;-15.79;48.14
46846;BME280;33947;46.804;134.252;2023-02-04T09:16:43;101277.50;;;-15.88;48.47
46846;BME280;33947;46.804;134.252;2023-02-04T09:19:47;101282.50;;;-15.98;48.24
46846;BME280;33947;46.804;134.252;2023-02-04T09:22:52;101267.47;;;-16.42;49.00
46846;BME280;33947;46.804;134.252;2023-02-04T09:25:56;101283.94;;;-16.39;48.59
46846;BME280;33947;46.804;134.252;2023-02-04T09:29:00;101283.50;;;-16.44;48.98
46846;BME280;33947;46.804;134.252;2023-02-04T09:32:04;101275.13;;;-16.15;47.71
46846;BME280;33947;46.804;134.252;2023-02-04T09:35:10;101255.75;;;-16.32;47.12
46846;BME280;33947;46.804;134.252;2023-02-04T09:38:15;101295.22;;;-16.26;47.90
46846;BME280;33947;46.804;134.252;2023-02-04T09:41:19;101269.72;;;-16.37;48.30
46846;BME280;33947;46.804;134.252;2023-02-04T09:44:25;101300.88;;;-15.92;47.34
46846;BME280;33947;46.804;134.252;2023-02-04T09:47:30;101274.56;;;-16.21;46.99
46846;BME280;33947;46.804;134.252;2023-02-04T09:50:35;101305.56;;;-16.25;47.59
46846;BME280;33947;46.804;134.252;2023-02-04T09:53:48;101305.34;;;-16.46;47.79
46846;BME280;33947;46.804;134.252;2023-02-04T09:56:58;101275.97;;;-16.70;48.20
46846;BME280;33947;46.804;134.252;2023-02-04T10:00:13;101259.25;;;-17.13;48.63
46846;BME280;33947;46.804;134.252;2023-02-04T10:03:20;101296.63;;;-16.76;48.25
46846;BME280;33947;46.804;134.252;2023-02-04T10:06:34;101306.13;;;-16.55;47.52
46846;BME280;33947;46.804;134.252;2023-02-04T10:09:42;101232.63;;;-17.08;47.26
46846;BME280;33947;46.804;134.252;2023-02-04T10:12:47;101262.78;;;-16.66;46.75
46846;BME280;33947;46.804;134.252;2023-02-04T10:15:53;101308.44;;;-17.30;47.37
46846;BME280;33947;46.804;134.252;2023-02-04T10:19:06;101310.94;;;-17.13;48.45
46846;BME280;33947;46.804;134.252;2023-02-04T10:22:16;101303.78;;;-17.79;49.16
46846;BME280;33947;46.804;134.252;2023-02-04T10:25:23;101215.06;;;-18.48;49.67
46846;BME280;33947;46.804;134.252;2023-02-04T10:28:35;101314.75;;;-18.22;50.66
46846;BME280;33947;46.804;134.252;2023-02-04T10:31:44;101278.66;;;-18.62;51.15
46846;BME280;33947;46.804;134.252;2023-02-04T10:34:49;101297.53;;;-18.76;51.27
46846;BME280;33947;46.804;134.252;2023-02-04T10:38:03;101306.13;;;-18.07;50.59
46846;BME280;33947;46.804;134.252;2023-02-04T10:41:12;101284.34;;;-18.05;49.13
46846;BME280;33947;46.804;134.252;2023-02-04T10:44:30;101246.84;;;-18.42;49.13
46846;BME280;33947;46.804;134.252;2023-02-04T10:47:35;101306.78;;;-18.43;49.25
46846;BME280;33947;46.804;134.252;2023-02-04T10:50:43;101285.81;;;-18.67;49.22
46846;BME280;33947;46.804;134.252;2023-02-04T10:53:49;101288.13;;;-18.86;50.31
46846;BME280;33947;46.804;134.252;2023-02-04T10:57:25;101288.19;;;-18.68;49.51
46846;BME280;33947;46.804;134.252;2023-02-04T11:00:30;101293.75;;;-18.88;49.49
46846;BME280;33947;46.804;134.252;2023-02-04T11:03:37;101280.78;;;-19.25;50.25
46846;BME280;33947;46.804;134.252;2023-02-04T11:06:42;101271.34;;;-19.10;49.85
46846;BME280;33947;46.804;134.252;2023-02-04T11:09:48;101241.16;;;-19.49;49.59
46846;BME280;33947;46.804;134.252;2023-02-04T11:19:40;101284.66;;;-20.02;52.53
46846;BME280;33947;46.804;134.252;2023-02-04T11:22:47;101249.91;;;-19.96;51.49
46846;BME280;33947;46.804;134.252;2023-02-04T11:29:29;101293.41;;;-19.82;51.60
46846;BME280;33947;46.804;134.252;2023-02-04T11:32:37;101278.09;;;-19.43;49.46
46846;BME280;33947;46.804;134.252;2023-02-04T11:36:00;101303.53;;;-20.14;51.23
46846;BME280;33947;46.804;134.252;2023-02-04T11:39:15;101301.50;;;-20.65;52.03
46846;BME280;33947;46.804;134.252;2023-02-04T11:42:25;101306.84;;;-20.39;52.23
46846;BME280;33947;46.804;134.252;2023-02-04T11:45:34;101295.53;;;-20.65;51.93
46846;BME280;33947;46.804;134.252;2023-02-04T11:48:39;101308.59;;;-20.54;52.19
46846;BME280;33947;46.804;134.252;2023-02-04T11:51:43;101295.53;;;-20.65;51.96
46846;BME280;33947;46.804;134.252;2023-02-04T11:54:58;101311.31;;;-20.52;51.66
46846;BME280;33947;46.804;134.252;2023-02-04T11:58:04;101308.84;;;-20.59;51.92
46846;BME280;33947;46.804;134.252;2023-02-04T12:01:23;101316.19;;;-20.54;51.93
46846;BME280;33947;46.804;134.252;2023-02-04T12:04:27;101296.53;;;-20.95;52.31
46846;BME280;33947;46.804;134.252;2023-02-04T12:07:32;101256.75;;;-21.29;53.18
46846;BME280;33947;46.804;134.252;2023-02-04T12:10:38;101226.44;;;-21.59;53.62
46846;BME280;33947;46.804;134.252;2023-02-04T12:13:52;101320.78;;;-20.65;52.48
46846;BME280;33947;46.804;134.252;2023-02-04T12:16:56;101330.22;;;-20.72;52.18
46846;BME280;33947;46.804;134.252;2023-02-04T12:20:01;101290.13;;;-21.08;52.61
46846;BME280;33947;46.804;134.252;2023-02-04T12:23:07;101326.84;;;-21.03;51.48
46846;BME280;33947;46.804;134.252;2023-02-04T12:26:11;101327.91;;;-20.93;52.33
46846;BME280;33947;46.804;134.252;2023-02-04T12:29:18;101287.50;;;-21.55;52.73
46846;BME280;33947;46.804;134.252;2023-02-04T12:32:23;101296.91;;;-21.61;52.36
46846;BME280;33947;46.804;134.252;2023-02-04T12:35:27;101320.88;;;-21.57;54.59
46846;BME280;33947;46.804;134.252;2023-02-04T12:38:32;101327.44;;;-21.43;53.68
46846;BME280;33947;46.804;134.252;2023-02-04T12:41:38;101323.19;;;-21.59;53.93
46846;BME280;33947;46.804;134.252;2023-02-04T12:44:43;101327.25;;;-21.68;55.29
46846;BME280;33947;46.804;134.252;2023-02-04T12:47:47;101308.91;;;-21.81;55.01
46846;BME280;33947;46.804;134.252;2023-02-04T12:50:51;101263.16;;;-21.77;54.14
46846;BME280;33947;46.804;134.252;2023-02-04T12:53:56;101301.53;;;-21.49;52.87
46846;BME280;33947;46.804;134.252;2023-02-04T12:57:00;101327.81;;;-21.47;53.05
46846;BME280;33947;46.804;134.252;2023-02-04T13:00:07;101313.44;;;-21.86;52.87
46846;BME280;33947;46.804;134.252;2023-02-04T13:03:12;101250.94;;;-22.34;53.06
46846;BME280;33947;46.804;134.252;2023-02-04T13:06:16;101305.56;;;-22.11;52.68
46846;BME280;33947;46.804;134.252;2023-02-04T13:12:56;101351.47;;;-22.21;54.08
46846;BME280;33947;46.804;134.252;2023-02-04T13:16:06;101349.22;;;-21.81;54.19
46846;BME280;33947;46.804;134.252;2023-02-04T13:19:10;101280.22;;;-22.20;53.66
46846;BME280;33947;46.804;134.252;2023-02-04T13:22:15;101362.09;;;-21.57;53.07
46846;BME280;33947;46.804;134.252;2023-02-04T13:25:19;101365.41;;;-21.65;51.37
46846;BME280;33947;46.804;134.252;2023-02-04T13:28:24;101361.22;;;-21.57;51.22
46846;BME280;33947;46.804;134.252;2023-02-04T13:31:28;101322.31;;;-22.04;51.95
46846;BME280;33947;46.804;134.252;2023-02-04T13:34:32;101348.19;;;-21.91;52.41
46846;BME280;33947;46.804;134.252;2023-02-04T13:37:36;101349.25;;;-21.74;52.04
46846;BME280;33947;46.804;134.252;2023-02-04T13:40:41;101345.38;;;-22.37;53.72
46846;BME280;33947;46.804;134.252;2023-02-04T13:43:45;101298.50;;;-22.66;53.22
46846;BME280;33947;46.804;134.252;2023-02-04T13:46:50;101342.53;;;-22.62;53.36
46846;BME280;33947;46.804;134.252;2023-02-04T13:49:55;101346.34;;;-22.66;54.50
46846;BME280;33947;46.804;134.252;2023-02-04T13:52:59;101344.47;;;-22.23;54.15
46846;BME280;33947;46.804;134.252;2023-02-04T13:56:04;101335.91;;;-22.69;54.23
46846;BME280;33947;46.804;134.252;2023-02-04T13:59:08;101336.44;;;-22.50;54.54
46846;BME280;33947;46.804;134.252;2023-02-04T14:02:12;101341.00;;;-21.95;53.64
46846;BME280;33947;46.804;134.252;2023-02-04T14:05:16;101333.28;;;-22.04;52.90
46846;BME280;33947;46.804;134.252;2023-02-04T14:08:22;101337.44;;;-22.19;53.75
46846;BME280;33947;46.804;134.252;2023-02-04T14:11:27;101330.94;;;-22.02;53.14
46846;BME280;33947;46.804;134.252;2023-02-04T14:14:31;101322.72;;;-22.37;53.88
46846;BME280;33947;46.804;134.252;2023-02-04T14:17:35;101341.13;;;-22.53;54.04
46846;BME280;33947;46.804;134.252;2023-02-04T14:20:42;101335.53;;;-22.58;54.80
46846;BME280;33947;46.804;134.252;2023-02-04T14:23:47;101313.97;;;-22.63;54.68
46846;BME280;33947;46.804;134.252;2023-02-04T14:26:52;101293.41;;;-22.44;54.08
46846;BME280;33947;46.804;134.252;2023-02-04T14:30:01;101271.34;;;-22.68;54.14
46846;BME280;33947;46.804;134.252;2023-02-04T14:33:06;101243.69;;;-22.83;54.41
46846;BME280;33947;46.804;134.252;2023-02-04T14:36:15;101290.88;;;-22.30;54.73
46846;BME280;33947;46.804;134.252;2023-02-04T14:39:19;101318.94;;;-22.41;55.00
46846;BME280;33947;46.804;134.252;2023-02-04T14:42:24;101308.28;;;-22.24;55.38
46846;BME280;33947;46.804;134.252;2023-02-04T14:45:28;101263.34;;;-22.35;54.34
46846;BME280;33947;46.804;134.252;2023-02-04T14:48:32;101280.56;;;-22.17;54.82
46846;BME280;33947;46.804;134.252;2023-02-04T14:51:36;101302.88;;;-22.05;55.41
46846;BME280;33947;46.804;134.252;2023-02-04T14:54:41;101296.19;;;-22.05;55.10
46846;BME280;33947;46.804;134.252;2023-02-04T14:57:45;101286.94;;;-21.82;54.57
46846;BME280;33947;46.804;134.252;2023-02-04T15:00:52;101280.31;;;-21.59;52.88
46846;BME280;33947;46.804;134.252;2023-02-04T15:03:57;101287.84;;;-21.51;52.34
46846;BME280;33947;46.804;134.252;2023-02-04T15:07:09;101242.94;;;-22.08;52.94
46846;BME280;33947;46.804;134.252;2023-02-04T15:10:17;101269.53;;;-21.95;53.41
46846;BME280;33947;46.804;134.252;2023-02-04T15:13:24;101282.50;;;-22.00;54.15
46846;BME280;33947;46.804;134.252;2023-02-04T15:16:30;101259.50;;;-22.10;54.30
46846;BME280;33947;46.804;134.252;2023-02-04T15:19:35;101280.44;;;-21.80;53.17
46846;BME280;33947;46.804;134.252;2023-02-04T15:22:39;101219.28;;;-21.94;52.45
46846;BME280;33947;46.804;134.252;2023-02-04T15:25:44;101232.91;;;-21.77;51.53
46846;BME280;33947;46.804;134.252;2023-02-04T15:28:48;101259.56;;;-22.39;52.81
46846;BME280;33947;46.804;134.252;2023-02-04T15:31:52;101257.59;;;-22.42;52.33
46846;BME280;33947;46.804;134.252;2023-02-04T15:34:58;101269.50;;;-22.55;53.67
46846;BME280;33947;46.804;134.252;2023-02-04T15:38:04;101258.75;;;-22.68;53.54
46846;BME280;33947;46.804;134.252;2023-02-04T15:41:08;101205.94;;;-23.19;54.28
46846;BME280;33947;46.804;134.252;2023-02-04T15:44:13;101216.50;;;-22.86;54.01
46846;BME280;33947;46.804;134.252;2023-02-04T15:47:17;101288.75;;;-22.48;53.68
46846;BME280;33947;46.804;134.252;2023-02-04T15:50:22;101231.22;;;-22.74;52.82
46846;BME280;33947;46.804;134.252;2023-02-04T15:53:26;101249.06;;;-23.31;54.89
46846;BME280;33947;46.804;134.252;2023-02-04T15:56:30;101267.56;;;-23.45;57.32
46846;BME280;33947;46.804;134.252;2023-02-04T15:59:35;101273.13;;;-22.96;56.22
46846;BME280;33947;46.804;134.252;2023-02-04T16:02:39;101273.13;;;-22.67;55.41
46846;BME280;33947;46.804;134.252;2023-02-04T16:05:44;101224.97;;;-22.85;54.92
46846;BME280;33947;46.804;134.252;2023-02-04T16:08:48;101236.81;;;-22.69;54.65
46846;BME280;33947;46.804;134.252;2023-02-04T16:11:53;101250.81;;;-22.57;54.34
46846;BME280;33947;46.804;134.252;2023-02-04T16:14:57;101262.53;;;-23.01;55.78
46846;BME280;33947;46.804;134.252;2023-02-04T16:18:01;101255.16;;;-22.78;55.48